Brilliance Of The Seas — C6SJ5 — position and weather

sailwx.info

Track history (hours):
 
Tides and Currents Weather Stations Pressure Air Temp Water Temp Dewpoint Dewpoint Depression Visibility Wind Speed Wind Dir Waves Ship Positions

Brilliance Of The Seas

Operator: Royal Caribbean Cruises Ltd

Last reported at 2016-May-23 21:33 UTC. Time now 2016-May-24 09:57 UTC.
Position N 42°09' E 018°33'.

Type: Ship. MMSI: 311361000.

Date/timePositionNaut miles runAvg speedWind from/ knotsBaromVisibWave heightAir tempDewpointWater temp
2016-May-23 21:33N 42°09' E 018°33'1716.6
2016-May-23 20:33N 42°25' E 018°32'7 6.9
2016-May-23 19:33N 42°28' E 018°41'4 4.1
2016-May-23 18:33N 42°26' E 018°46'0 0.0
2016-May-23 17:33N 42°26' E 018°46'0 0.1
2016-May-23 16:33N 42°26' E 018°46'0 0.0
2016-May-23 15:33N 42°26' E 018°46'0 0.0
2016-May-23 14:33N 42°26' E 018°46'0 0.0
2016-May-23 13:18N 42°26' E 018°46'0 0.1
2016-May-23 12:33N 42°26' E 018°46'0 0.0
2016-May-23 11:33N 42°26' E 018°46'0 0.0
2016-May-23 10:33N 42°26' E 018°46'4 4.2
2016-May-23 09:34N 42°27' E 018°40'7 6.4
2016-May-23 08:31N 42°23' E 018°33'1213.1
2016-May-23 07:34N 42°22' E 018°16'1615.9
2016-May-23 06:33N 42°23' E 017°54'  
2016-May-20 22:32N 45°26' E 012°18'0 0.0
2016-May-20 21:29N 45°26' E 012°18'0 0.0
2016-May-20 20:32N 45°26' E 012°18'0 0.0
2016-May-20 19:32N 45°26' E 012°18'0 0.0
2016-May-20 18:32N 45°26' E 012°18'0 0.0
2016-May-20 17:32N 45°26' E 012°18'0 0.0
2016-May-20 16:32N 45°26' E 012°18'0 0.0
2016-May-20 15:32N 45°26' E 012°18'0 0.0
2016-May-20 14:29N 45°26' E 012°18'0 0.0
2016-May-20 13:29N 45°26' E 012°18'2 1.7
2016-May-20 12:33N 45°26' E 012°21'7 7.0
2016-May-20 11:33N 45°24' E 012°30'1211.8
2016-May-20 10:33N 45°13' E 012°39'1615.9
2016-May-20 09:33N 45°01' E 012°53'45114.9
2016-May-19 03:23N 37°51' E 015°55'1821.4
2016-May-19 02:33N 37°57' E 015°33'1818.2
2016-May-19 01:34N 38°15' E 015°37'1616.2
2016-May-19 00:33N 38°31' E 015°34'2221.9
2016-May-18 23:33N 38°51' E 015°22'11122.3
2016-May-18 18:33N 40°27' E 014°10'1514.9
2016-May-18 17:33N 40°42' E 014°13'9 0.7
2016-May-18 04:33N 40°50' E 014°16'8 8.2
2016-May-18 03:33N 40°43' E 014°11'1413.8
2016-May-18 02:33N 40°37' E 013°55'1616.1
2016-May-18 01:33N 40°39' E 013°33'224 7.2
2016-May-16 18:28N 43°22' E 010°07'1213.2
2016-May-16 17:33N 43°32' E 010°16'2 2.1
2016-May-16 16:28N 43°33' E 010°18'0 0.0
2016-May-16 15:31N 43°33' E 010°18'0 0.0
2016-May-16 14:31N 43°33' E 010°18'0 0.0
2016-May-16 13:31N 43°33' E 010°18'0 0.0
2016-May-16 12:31N 43°33' E 010°18'0 0.0
2016-May-16 11:31N 43°33' E 010°18'0 0.0
2016-May-16 10:31N 43°33' E 010°18'0 0.0
2016-May-16 09:28N 43°33' E 010°18'0 0.0
2016-May-16 08:25N 43°33' E 010°18'0 0.1
2016-May-16 04:33N 43°33' E 010°18'12911.7
2016-May-15 17:33N 43°39' E 007°20'3 2.4
2016-May-15 16:31N 43°41' E 007°19'0 0.0
2016-May-15 15:31N 43°41' E 007°19'0 0.0
2016-May-15 14:25N 43°41' E 007°19'0 0.0
2016-May-15 13:31N 43°41' E 007°19'0 0.0
2016-May-15 12:25N 43°41' E 007°19'0 0.0
2016-May-15 11:22N 43°41' E 007°19'0 0.0
2016-May-15 10:25N 43°41' E 007°19'0 0.0
2016-May-15 09:31N 43°41' E 007°19'0 0.0
2016-May-15 08:31N 43°41' E 007°19'0 0.0
2016-May-15 07:31N 43°41' E 007°19'8 8.4
2016-May-15 06:33N 43°33' E 007°16'19817.7
2016-May-14 19:24N 41°42' E 003°34'1922.5
2016-May-14 18:33N 41°33' E 003°12'2621.8
2016-May-14 17:21N 41°24' E 002°39'1617.8
2016-May-14 16:27N 41°18' E 002°19'7 0.5
2016-May-14 03:10N 41°19' E 002°10'5 7.6
2016-May-14 02:33N 41°17' E 002°15'1111.0
2016-May-14 01:33N 41°21' E 002°29'  
Track history (hours):
 
Tides and Currents Weather Stations Pressure Air Temp Water Temp Dewpoint Dewpoint Depression Visibility Wind Speed Wind Dir Waves Ship Positions

Brilliance Of The Seas

Operator: Royal Caribbean Cruises Ltd

Last reported at 2016-May-23 21:33 UTC. Time now 2016-May-24 09:57 UTC.
Position N 42°09' E 018°33'.

Type: Ship. MMSI: 311361000.

Date/timePositionNaut miles runAvg speedWind from/ knotsBaromVisibWave heightAir tempDewpointWater temp
2016-May-23 21:33N 42°09' E 018°33'1716.6
2016-May-23 20:33N 42°25' E 018°32'7 6.9
2016-May-23 19:33N 42°28' E 018°41'4 4.1
2016-May-23 18:33N 42°26' E 018°46'0 0.0
2016-May-23 17:33N 42°26' E 018°46'0 0.1
2016-May-23 16:33N 42°26' E 018°46'0 0.0
2016-May-23 15:33N 42°26' E 018°46'0 0.0
2016-May-23 14:33N 42°26' E 018°46'0 0.0
2016-May-23 13:18N 42°26' E 018°46'0 0.1
2016-May-23 12:33N 42°26' E 018°46'0 0.0
2016-May-23 11:33N 42°26' E 018°46'0 0.0
2016-May-23 10:33N 42°26' E 018°46'4 4.2
2016-May-23 09:34N 42°27' E 018°40'7 6.4
2016-May-23 08:31N 42°23' E 018°33'1213.1
2016-May-23 07:34N 42°22' E 018°16'1615.9
2016-May-23 06:33N 42°23' E 017°54'  
2016-May-20 22:32N 45°26' E 012°18'0 0.0
2016-May-20 21:29N 45°26' E 012°18'0 0.0
2016-May-20 20:32N 45°26' E 012°18'0 0.0
2016-May-20 19:32N 45°26' E 012°18'0 0.0
2016-May-20 18:32N 45°26' E 012°18'0 0.0
2016-May-20 17:32N 45°26' E 012°18'0 0.0
2016-May-20 16:32N 45°26' E 012°18'0 0.0
2016-May-20 15:32N 45°26' E 012°18'0 0.0
2016-May-20 14:29N 45°26' E 012°18'0 0.0
2016-May-20 13:29N 45°26' E 012°18'2 1.7
2016-May-20 12:33N 45°26' E 012°21'7 7.0
2016-May-20 11:33N 45°24' E 012°30'1211.8
2016-May-20 10:33N 45°13' E 012°39'1615.9
2016-May-20 09:33N 45°01' E 012°53'45114.9
2016-May-19 03:23N 37°51' E 015°55'1821.4
2016-May-19 02:33N 37°57' E 015°33'1818.2
2016-May-19 01:34N 38°15' E 015°37'1616.2
2016-May-19 00:33N 38°31' E 015°34'2221.9
2016-May-18 23:33N 38°51' E 015°22'11122.3
2016-May-18 18:33N 40°27' E 014°10'1514.9
2016-May-18 17:33N 40°42' E 014°13'9 0.7
2016-May-18 04:33N 40°50' E 014°16'8 8.2
2016-May-18 03:33N 40°43' E 014°11'1413.8
2016-May-18 02:33N 40°37' E 013°55'1616.1
2016-May-18 01:33N 40°39' E 013°33'224 7.2
2016-May-16 18:28N 43°22' E 010°07'1213.2
2016-May-16 17:33N 43°32' E 010°16'2 2.1
2016-May-16 16:28N 43°33' E 010°18'0 0.0
2016-May-16 15:31N 43°33' E 010°18'0 0.0
2016-May-16 14:31N 43°33' E 010°18'0 0.0
2016-May-16 13:31N 43°33' E 010°18'0 0.0
2016-May-16 12:31N 43°33' E 010°18'0 0.0
2016-May-16 11:31N 43°33' E 010°18'0 0.0
2016-May-16 10:31N 43°33' E 010°18'0 0.0
2016-May-16 09:28N 43°33' E 010°18'0 0.0
2016-May-16 08:25N 43°33' E 010°18'0 0.1
2016-May-16 04:33N 43°33' E 010°18'12911.7
2016-May-15 17:33N 43°39' E 007°20'3 2.4
2016-May-15 16:31N 43°41' E 007°19'0 0.0
2016-May-15 15:31N 43°41' E 007°19'0 0.0
2016-May-15 14:25N 43°41' E 007°19'0 0.0
2016-May-15 13:31N 43°41' E 007°19'0 0.0
2016-May-15 12:25N 43°41' E 007°19'0 0.0
2016-May-15 11:22N 43°41' E 007°19'0 0.0
2016-May-15 10:25N 43°41' E 007°19'0 0.0
2016-May-15 09:31N 43°41' E 007°19'0 0.0
2016-May-15 08:31N 43°41' E 007°19'0 0.0
2016-May-15 07:31N 43°41' E 007°19'8 8.4
2016-May-15 06:33N 43°33' E 007°16'19817.7
2016-May-14 19:24N 41°42' E 003°34'1922.5
2016-May-14 18:33N 41°33' E 003°12'2621.8
2016-May-14 17:21N 41°24' E 002°39'1617.8
2016-May-14 16:27N 41°18' E 002°19'7 0.5
2016-May-14 03:10N 41°19' E 002°10'5 7.6
2016-May-14 02:33N 41°17' E 002°15'1111.0
2016-May-14 01:33N 41°21' E 002°29'  

Dump ship's entire track history